Megargel, AL (36457)

6:06 AM CST on February 07, 2016 (GMT -0600)
APRSWXNET | | Change Station
CLOSE
Current Station
Personal Weather Station
Location: Perdue Hill, AL
Elevation: 429 ft
Nearby Weather Stations
Active Advisory: Flood Warning

Elev 429 ft 31.53 °N, 87.32 °W | Updated 17 minutes ago

Clear
Clear
34 °F
Feels Like 29 °F
N
5
Wind Variable Wind from SSE
Gusts 6.0 mph

Today
High -- | Low -- °F
--% Chance of Precip.
Yesterday
High -- | Low -- °F
Precip. -- in
Pressure 30.24 in
Visibility 10.0 miles
Clouds Clear
Windchill 29 °F
Dew Point 25 °F
Humidity 68%
Rainfall in
Snow Depth Not available.
6:38 AM 5:29 PM
Waning Crescent, 2% visible
METAR KGZH 071153Z AUTO 33004KT 10SM CLR M01/M05 A3023 RMK AO2 SLP238 T10061050 10006 21011 53004
Pressure 30.24 in
Visibility 10.0 miles
Clouds Clear
Windchill 29 °F
Dew Point 25 °F
Humidity 68%
Rainfall in
Snow Depth Not available.
6:38 AM 5:29 PM
Waning Crescent, 2% visible
METAR KGZH 071153Z AUTO 33004KT 10SM CLR M01/M05 A3023 RMK AO2 SLP238 T10061050 10006 21011 53004

10-Day Weather Forecast

Almanac

Astronomy

Feb. 07, 2016 Rise Set
Actual Time
Civil Twilight
Nautical Twilight
Astronomical Twilight
Moon
Length of Visible Light
Length of Day
Tomorrow will be .
, % of the Moon is Illuminated

Today's Extremes

State Highs State Lows

Community

WunderPhotos

Upload Photos

1,891,182 photos uploaded!

WunderBlog® & News

Nearby

Air Quality

  Air Quality AQ Index Pollutant
Not available.

Snow Depth

Station Depth Elevation

Earthquake Activity

City Distance Mag. Time & Date
Minimum magnitude displayed is 2.5.

Coastal Water Temperatures

Place Temperature

Stations

Nearby Weather Stations

Station Location Temp. Windchill Dew Point Humidity Wind Precip. Elev Updated Type
                   

Watches & Warnings

Flood Warning
Issued: 7:25 PM CST Feb. 6, 2016 – National Weather Service

... Flood Warning extended until Monday evening... the Flood Warning continues for
the Alabama River near Claiborne dam
* from tomorrow late morning until Monday evening.
* At 7pm Saturday the stage was 41 feet.
* Minor flooding is forecast.
* Flood stage is 42 feet.
* Forecast to rise above flood stage by tomorrow late morning and continue to
rise near 42.8 feet by Monday morning. The river will fall below flood stage
by Monday evening.
* At 40 feet... considerable flooding of agricultural land in the area.
* At 35 feet... flooding of pastureland along the lower Alabama River.
* At 27 feet... flooding of low lying area. Roads near the confluence of the
Alabama and Tombigbee rivers begin to flood.


Lat... Lon 3184 8756 3184 8738 3146 8753 3114 8786
3114 8797 3150 8766